sensor_id;sensor_type;location;lat;lon;timestamp;temperature;humidity
40287;DHT22;25998;46.604;13.610;2023-02-19T00:00:43;3.50;99.90
40287;DHT22;25998;46.604;13.610;2023-02-19T00:03:59;3.60;99.90
40287;DHT22;25998;46.604;13.610;2023-02-19T00:07:13;3.50;99.90
40287;DHT22;25998;46.604;13.610;2023-02-19T00:10:23;3.70;99.90
40287;DHT22;25998;46.604;13.610;2023-02-19T00:13:36;3.60;99.90
40287;DHT22;25998;46.604;13.610;2023-02-19T00:16:47;3.70;99.90
40287;DHT22;25998;46.604;13.610;2023-02-19T00:19:58;3.60;99.90
40287;DHT22;25998;46.604;13.610;2023-02-19T00:23:12;3.60;99.90
40287;DHT22;25998;46.604;13.610;2023-02-19T00:26:29;3.60;99.90
40287;DHT22;25998;46.604;13.610;2023-02-19T00:29:39;3.50;99.90
40287;DHT22;25998;46.604;13.610;2023-02-19T00:32:50;3.60;99.90
40287;DHT22;25998;46.604;13.610;2023-02-19T00:36:03;3.60;99.90
40287;DHT22;25998;46.604;13.610;2023-02-19T00:39:15;3.70;99.90
40287;DHT22;25998;46.604;13.610;2023-02-19T00:42:27;3.80;99.90
40287;DHT22;25998;46.604;13.610;2023-02-19T00:45:38;3.80;99.90
40287;DHT22;25998;46.604;13.610;2023-02-19T00:48:59;3.70;99.90
40287;DHT22;25998;46.604;13.610;2023-02-19T00:52:10;3.70;99.90
40287;DHT22;25998;46.604;13.610;2023-02-19T00:55:20;3.80;99.90
40287;DHT22;25998;46.604;13.610;2023-02-19T00:58:37;3.70;99.90
40287;DHT22;25998;46.604;13.610;2023-02-19T01:01:48;3.60;99.90
40287;DHT22;25998;46.604;13.610;2023-02-19T01:04:59;3.50;99.90
40287;DHT22;25998;46.604;13.610;2023-02-19T01:08:10;3.40;99.90
40287;DHT22;25998;46.604;13.610;2023-02-19T01:11:21;3.30;99.90
40287;DHT22;25998;46.604;13.610;2023-02-19T01:14:35;3.30;99.90
40287;DHT22;25998;46.604;13.610;2023-02-19T01:17:46;3.40;99.90
40287;DHT22;25998;46.604;13.610;2023-02-19T01:20:59;3.40;99.90
40287;DHT22;25998;46.604;13.610;2023-02-19T01:24:14;3.40;99.90
40287;DHT22;25998;46.604;13.610;2023-02-19T01:27:26;3.30;99.90
40287;DHT22;25998;46.604;13.610;2023-02-19T01:30:39;3.30;99.90
40287;DHT22;25998;46.604;13.610;2023-02-19T01:33:55;3.50;99.90
40287;DHT22;25998;46.604;13.610;2023-02-19T01:37:09;3.40;99.90
40287;DHT22;25998;46.604;13.610;2023-02-19T01:40:24;3.40;99.90
40287;DHT22;25998;46.604;13.610;2023-02-19T01:44:01;3.50;99.90
40287;DHT22;25998;46.604;13.610;2023-02-19T01:47:15;3.40;99.90
40287;DHT22;25998;46.604;13.610;2023-02-19T01:50:28;3.30;99.90
40287;DHT22;25998;46.604;13.610;2023-02-19T01:53:45;3.20;99.90
40287;DHT22;25998;46.604;13.610;2023-02-19T01:56:58;3.10;99.90
40287;DHT22;25998;46.604;13.610;2023-02-19T02:00:14;3.20;99.90
40287;DHT22;25998;46.604;13.610;2023-02-19T02:03:30;3.20;99.90
40287;DHT22;25998;46.604;13.610;2023-02-19T02:09:53;3.50;99.90
40287;DHT22;25998;46.604;13.610;2023-02-19T02:13:22;3.30;99.90
40287;DHT22;25998;46.604;13.610;2023-02-19T02:24:05;3.30;99.90
40287;DHT22;25998;46.604;13.610;2023-02-19T02:27:37;3.40;99.90
40287;DHT22;25998;46.604;13.610;2023-02-19T02:34:28;3.20;99.90
40287;DHT22;25998;46.604;13.610;2023-02-19T02:37:42;3.20;99.90
40287;DHT22;25998;46.604;13.610;2023-02-19T02:40:57;3.20;99.90
40287;DHT22;25998;46.604;13.610;2023-02-19T02:44:08;3.30;99.90
40287;DHT22;25998;46.604;13.610;2023-02-19T02:47:19;3.30;99.90
40287;DHT22;25998;46.604;13.610;2023-02-19T02:51:37;3.40;99.90
40287;DHT22;25998;46.604;13.610;2023-02-19T02:54:31;3.30;99.90
40287;DHT22;25998;46.604;13.610;2023-02-19T02:58:02;3.30;99.90
40287;DHT22;25998;46.604;13.610;2023-02-19T03:05:19;3.20;99.90
40287;DHT22;25998;46.604;13.610;2023-02-19T03:12:20;3.20;99.90
40287;DHT22;25998;46.604;13.610;2023-02-19T03:15:56;3.30;99.90
40287;DHT22;25998;46.604;13.610;2023-02-19T03:19:28;3.20;99.90
40287;DHT22;25998;46.604;13.610;2023-02-19T03:22:41;3.10;99.90
40287;DHT22;25998;46.604;13.610;2023-02-19T03:25:55;3.10;99.90
40287;DHT22;25998;46.604;13.610;2023-02-19T03:29:15;3.20;99.90
40287;DHT22;25998;46.604;13.610;2023-02-19T03:33:02;3.30;99.90
40287;DHT22;25998;46.604;13.610;2023-02-19T03:36:18;3.30;99.90
40287;DHT22;25998;46.604;13.610;2023-02-19T03:39:35;3.30;99.90
40287;DHT22;25998;46.604;13.610;2023-02-19T03:43:06;3.20;99.90
40287;DHT22;25998;46.604;13.610;2023-02-19T03:46:33;3.20;99.90
40287;DHT22;25998;46.604;13.610;2023-02-19T03:50:07;3.30;99.90
40287;DHT22;25998;46.604;13.610;2023-02-19T03:54:05;3.30;99.90
40287;DHT22;25998;46.604;13.610;2023-02-19T03:57:36;3.30;99.90
40287;DHT22;25998;46.604;13.610;2023-02-19T04:00:56;3.30;99.90
40287;DHT22;25998;46.604;13.610;2023-02-19T04:04:21;3.20;99.90
40287;DHT22;25998;46.604;13.610;2023-02-19T04:07:38;3.30;99.90
40287;DHT22;25998;46.604;13.610;2023-02-19T04:10:51;3.30;99.90
40287;DHT22;25998;46.604;13.610;2023-02-19T04:14:11;3.20;99.90
40287;DHT22;25998;46.604;13.610;2023-02-19T04:17:36;3.10;99.90
40287;DHT22;25998;46.604;13.610;2023-02-19T04:20:51;3.20;99.90
40287;DHT22;25998;46.604;13.610;2023-02-19T04:24:06;3.30;99.90
40287;DHT22;25998;46.604;13.610;2023-02-19T04:27:19;3.30;99.90
40287;DHT22;25998;46.604;13.610;2023-02-19T04:30:32;3.30;99.90
40287;DHT22;25998;46.604;13.610;2023-02-19T04:33:43;3.10;99.90
40287;DHT22;25998;46.604;13.610;2023-02-19T04:36:56;3.00;99.90
40287;DHT22;25998;46.604;13.610;2023-02-19T04:40:11;3.20;99.90
40287;DHT22;25998;46.604;13.610;2023-02-19T04:43:24;3.20;99.90
40287;DHT22;25998;46.604;13.610;2023-02-19T04:46:39;3.20;99.90
40287;DHT22;25998;46.604;13.610;2023-02-19T04:49:50;3.20;99.90
40287;DHT22;25998;46.604;13.610;2023-02-19T04:53:00;3.20;99.90
40287;DHT22;25998;46.604;13.610;2023-02-19T04:56:16;3.30;99.90
40287;DHT22;25998;46.604;13.610;2023-02-19T04:59:28;3.20;99.90
40287;DHT22;25998;46.604;13.610;2023-02-19T05:02:41;3.00;99.90
40287;DHT22;25998;46.604;13.610;2023-02-19T05:05:55;3.00;99.90
40287;DHT22;25998;46.604;13.610;2023-02-19T05:09:06;3.20;99.90
40287;DHT22;25998;46.604;13.610;2023-02-19T05:12:17;3.30;99.90
40287;DHT22;25998;46.604;13.610;2023-02-19T05:15:34;3.10;99.90
40287;DHT22;25998;46.604;13.610;2023-02-19T05:18:45;3.00;99.90
40287;DHT22;25998;46.604;13.610;2023-02-19T05:21:57;3.00;99.90
40287;DHT22;25998;46.604;13.610;2023-02-19T05:25:07;3.20;99.90
40287;DHT22;25998;46.604;13.610;2023-02-19T05:28:19;3.10;99.90
40287;DHT22;25998;46.604;13.610;2023-02-19T05:31:36;3.10;99.90
40287;DHT22;25998;46.604;13.610;2023-02-19T05:34:47;3.00;99.90
40287;DHT22;25998;46.604;13.610;2023-02-19T05:37:58;3.00;99.90
40287;DHT22;25998;46.604;13.610;2023-02-19T05:41:13;3.00;99.90
40287;DHT22;25998;46.604;13.610;2023-02-19T05:44:27;3.20;99.90
40287;DHT22;25998;46.604;13.610;2023-02-19T05:47:38;3.20;99.90
40287;DHT22;25998;46.604;13.610;2023-02-19T05:50:49;3.20;99.90
40287;DHT22;25998;46.604;13.610;2023-02-19T05:54:03;3.40;99.90
40287;DHT22;25998;46.604;13.610;2023-02-19T05:57:16;3.20;99.90
40287;DHT22;25998;46.604;13.610;2023-02-19T06:00:39;3.30;99.90
40287;DHT22;25998;46.604;13.610;2023-02-19T06:03:53;3.20;99.90
40287;DHT22;25998;46.604;13.610;2023-02-19T06:07:04;3.30;99.90
40287;DHT22;25998;46.604;13.610;2023-02-19T06:10:18;3.10;99.90
40287;DHT22;25998;46.604;13.610;2023-02-19T06:13:32;3.10;99.90
40287;DHT22;25998;46.604;13.610;2023-02-19T06:16:43;3.10;99.90
40287;DHT22;25998;46.604;13.610;2023-02-19T06:19:54;3.10;99.90
40287;DHT22;25998;46.604;13.610;2023-02-19T06:23:05;3.10;99.90
40287;DHT22;25998;46.604;13.610;2023-02-19T06:26:26;3.00;99.90
40287;DHT22;25998;46.604;13.610;2023-02-19T06:29:37;3.10;99.90
40287;DHT22;25998;46.604;13.610;2023-02-19T06:32:52;3.20;99.90
40287;DHT22;25998;46.604;13.610;2023-02-19T06:36:11;3.30;99.90
40287;DHT22;25998;46.604;13.610;2023-02-19T06:39:22;3.30;99.90
40287;DHT22;25998;46.604;13.610;2023-02-19T06:42:37;3.40;99.90
40287;DHT22;25998;46.604;13.610;2023-02-19T06:45:51;3.40;99.90
40287;DHT22;25998;46.604;13.610;2023-02-19T06:49:07;3.30;99.90
40287;DHT22;25998;46.604;13.610;2023-02-19T06:52:21;3.30;99.90
40287;DHT22;25998;46.604;13.610;2023-02-19T06:55:37;3.30;99.90
40287;DHT22;25998;46.604;13.610;2023-02-19T06:58:50;3.40;99.90
40287;DHT22;25998;46.604;13.610;2023-02-19T07:02:04;3.50;99.90
40287;DHT22;25998;46.604;13.610;2023-02-19T07:05:18;3.40;99.90
40287;DHT22;25998;46.604;13.610;2023-02-19T07:08:29;3.60;99.90
40287;DHT22;25998;46.604;13.610;2023-02-19T07:11:40;3.70;99.90
40287;DHT22;25998;46.604;13.610;2023-02-19T07:14:51;3.60;99.90
40287;DHT22;25998;46.604;13.610;2023-02-19T07:18:02;3.50;99.90
40287;DHT22;25998;46.604;13.610;2023-02-19T07:21:15;3.50;99.90
40287;DHT22;25998;46.604;13.610;2023-02-19T07:24:27;3.60;99.90
40287;DHT22;25998;46.604;13.610;2023-02-19T07:27:37;3.80;99.90
40287;DHT22;25998;46.604;13.610;2023-02-19T07:30:49;3.80;99.90
40287;DHT22;25998;46.604;13.610;2023-02-19T07:34:00;3.90;99.90
40287;DHT22;25998;46.604;13.610;2023-02-19T07:37:11;4.00;99.90
40287;DHT22;25998;46.604;13.610;2023-02-19T07:40:31;4.00;99.90
40287;DHT22;25998;46.604;13.610;2023-02-19T07:43:42;4.10;99.90
40287;DHT22;25998;46.604;13.610;2023-02-19T07:46:53;4.00;99.90
40287;DHT22;25998;46.604;13.610;2023-02-19T07:50:05;4.00;99.90
40287;DHT22;25998;46.604;13.610;2023-02-19T07:53:16;3.90;99.90
40287;DHT22;25998;46.604;13.610;2023-02-19T07:56:27;3.90;99.90
40287;DHT22;25998;46.604;13.610;2023-02-19T07:59:40;4.10;99.90
40287;DHT22;25998;46.604;13.610;2023-02-19T08:02:57;4.10;99.90
40287;DHT22;25998;46.604;13.610;2023-02-19T08:06:16;4.30;99.90
40287;DHT22;25998;46.604;13.610;2023-02-19T08:09:32;4.40;99.90
40287;DHT22;25998;46.604;13.610;2023-02-19T08:12:43;4.50;99.90
40287;DHT22;25998;46.604;13.610;2023-02-19T08:16:20;4.60;99.90
40287;DHT22;25998;46.604;13.610;2023-02-19T08:19:34;4.80;99.90
40287;DHT22;25998;46.604;13.610;2023-02-19T08:22:45;4.90;99.90
40287;DHT22;25998;46.604;13.610;2023-02-19T08:25:59;4.90;99.90
40287;DHT22;25998;46.604;13.610;2023-02-19T08:29:15;5.00;99.90
40287;DHT22;25998;46.604;13.610;2023-02-19T08:32:36;5.00;99.90
40287;DHT22;25998;46.604;13.610;2023-02-19T08:35:47;5.00;99.90
40287;DHT22;25998;46.604;13.610;2023-02-19T08:39:01;5.10;99.90
40287;DHT22;25998;46.604;13.610;2023-02-19T08:42:14;5.00;99.90
40287;DHT22;25998;46.604;13.610;2023-02-19T08:45:27;5.10;99.90
40287;DHT22;25998;46.604;13.610;2023-02-19T08:48:39;5.00;99.90
40287;DHT22;25998;46.604;13.610;2023-02-19T08:51:58;5.10;99.90
40287;DHT22;25998;46.604;13.610;2023-02-19T08:55:22;5.10;99.90
40287;DHT22;25998;46.604;13.610;2023-02-19T08:58:39;5.40;99.90
40287;DHT22;25998;46.604;13.610;2023-02-19T09:05:22;5.80;99.90
40287;DHT22;25998;46.604;13.610;2023-02-19T09:08:38;6.10;99.90
40287;DHT22;25998;46.604;13.610;2023-02-19T09:11:49;6.10;99.90
40287;DHT22;25998;46.604;13.610;2023-02-19T09:15:02;6.20;99.90
40287;DHT22;25998;46.604;13.610;2023-02-19T09:18:15;6.40;99.90
40287;DHT22;25998;46.604;13.610;2023-02-19T09:21:33;7.00;99.90
40287;DHT22;25998;46.604;13.610;2023-02-19T09:24:55;7.70;99.90
40287;DHT22;25998;46.604;13.610;2023-02-19T09:28:14;8.20;99.90
40287;DHT22;25998;46.604;13.610;2023-02-19T09:31:30;8.80;99.90
40287;DHT22;25998;46.604;13.610;2023-02-19T09:34:42;9.10;99.90
40287;DHT22;25998;46.604;13.610;2023-02-19T09:37:58;9.10;99.90
40287;DHT22;25998;46.604;13.610;2023-02-19T09:41:31;9.20;99.90
40287;DHT22;25998;46.604;13.610;2023-02-19T09:44:51;9.20;99.90
40287;DHT22;25998;46.604;13.610;2023-02-19T09:48:03;9.40;99.90
40287;DHT22;25998;46.604;13.610;2023-02-19T09:51:16;9.50;99.90
40287;DHT22;25998;46.604;13.610;2023-02-19T09:54:32;9.60;99.90
40287;DHT22;25998;46.604;13.610;2023-02-19T09:57:47;9.90;99.90
40287;DHT22;25998;46.604;13.610;2023-02-19T10:01:03;9.80;99.90
40287;DHT22;25998;46.604;13.610;2023-02-19T10:04:18;9.90;99.90
40287;DHT22;25998;46.604;13.610;2023-02-19T10:07:50;9.90;99.90
40287;DHT22;25998;46.604;13.610;2023-02-19T10:11:05;10.30;99.90
40287;DHT22;25998;46.604;13.610;2023-02-19T10:14:35;10.70;99.90
40287;DHT22;25998;46.604;13.610;2023-02-19T10:17:48;10.90;99.20
40287;DHT22;25998;46.604;13.610;2023-02-19T10:21:03;11.30;98.90
40287;DHT22;25998;46.604;13.610;2023-02-19T10:24:24;11.30;98.60
40287;DHT22;25998;46.604;13.610;2023-02-19T10:27:39;11.40;98.30
40287;DHT22;25998;46.604;13.610;2023-02-19T10:30:55;11.50;97.80
40287;DHT22;25998;46.604;13.610;2023-02-19T10:34:21;11.50;98.80
40287;DHT22;25998;46.604;13.610;2023-02-19T10:37:42;11.30;98.70
40287;DHT22;25998;46.604;13.610;2023-02-19T10:41:12;11.30;99.00
40287;DHT22;25998;46.604;13.610;2023-02-19T10:44:26;11.10;98.20
40287;DHT22;25998;46.604;13.610;2023-02-19T10:47:39;11.20;98.10
40287;DHT22;25998;46.604;13.610;2023-02-19T10:51:05;11.30;97.50
40287;DHT22;25998;46.604;13.610;2023-02-19T10:54:25;11.50;97.80
40287;DHT22;25998;46.604;13.610;2023-02-19T10:57:48;11.90;96.80
40287;DHT22;25998;46.604;13.610;2023-02-19T11:01:17;12.10;96.70
40287;DHT22;25998;46.604;13.610;2023-02-19T11:08:22;11.90;97.40
40287;DHT22;25998;46.604;13.610;2023-02-19T11:11:38;12.10;96.80
40287;DHT22;25998;46.604;13.610;2023-02-19T11:14:55;12.50;96.30
40287;DHT22;25998;46.604;13.610;2023-02-19T11:22:16;12.50;95.90
40287;DHT22;25998;46.604;13.610;2023-02-19T11:25:30;12.90;96.10
40287;DHT22;25998;46.604;13.610;2023-02-19T11:28:44;12.90;95.40
40287;DHT22;25998;46.604;13.610;2023-02-19T11:32:40;12.70;95.10
40287;DHT22;25998;46.604;13.610;2023-02-19T11:36:31;12.50;95.50
40287;DHT22;25998;46.604;13.610;2023-02-19T11:39:55;12.70;95.40
40287;DHT22;25998;46.604;13.610;2023-02-19T11:50:56;12.90;95.30
40287;DHT22;25998;46.604;13.610;2023-02-19T11:54:38;12.80;95.30
40287;DHT22;25998;46.604;13.610;2023-02-19T12:07:03;12.80;94.80
40287;DHT22;25998;46.604;13.610;2023-02-19T12:13:26;13.00;94.30
40287;DHT22;25998;46.604;13.610;2023-02-19T12:16:59;13.10;94.40
40287;DHT22;25998;46.604;13.610;2023-02-19T12:20:50;13.60;94.20
40287;DHT22;25998;46.604;13.610;2023-02-19T12:31:48;13.20;94.10
40287;DHT22;25998;46.604;13.610;2023-02-19T12:35:33;12.90;95.30
40287;DHT22;25998;46.604;13.610;2023-02-19T12:42:42;13.00;94.80
40287;DHT22;25998;46.604;13.610;2023-02-19T12:46:08;12.80;94.60
40287;DHT22;25998;46.604;13.610;2023-02-19T12:49:46;12.90;94.30
40287;DHT22;25998;46.604;13.610;2023-02-19T12:57:35;12.90;94.70
40287;DHT22;25998;46.604;13.610;2023-02-19T13:05:05;12.90;94.60
40287;DHT22;25998;46.604;13.610;2023-02-19T13:08:57;12.90;95.00
40287;DHT22;25998;46.604;13.610;2023-02-19T13:12:33;12.80;94.30
40287;DHT22;25998;46.604;13.610;2023-02-19T13:16:01;12.80;94.30
40287;DHT22;25998;46.604;13.610;2023-02-19T13:19:16;13.00;94.70
40287;DHT22;25998;46.604;13.610;2023-02-19T13:30:23;12.80;94.80
40287;DHT22;25998;46.604;13.610;2023-02-19T13:37:20;12.90;94.60
40287;DHT22;25998;46.604;13.610;2023-02-19T13:41:00;13.10;94.70
40287;DHT22;25998;46.604;13.610;2023-02-19T13:44:32;13.20;94.50
40287;DHT22;25998;46.604;13.610;2023-02-19T13:54:35;13.20;93.80
40287;DHT22;25998;46.604;13.610;2023-02-19T13:57:51;13.10;93.50
40287;DHT22;25998;46.604;13.610;2023-02-19T14:01:08;13.10;94.20
40287;DHT22;25998;46.604;13.610;2023-02-19T14:04:55;13.30;93.90
40287;DHT22;25998;46.604;13.610;2023-02-19T14:08:08;13.40;94.00
40287;DHT22;25998;46.604;13.610;2023-02-19T14:15:41;13.60;93.20
40287;DHT22;25998;46.604;13.610;2023-02-19T14:19:42;13.60;93.60
40287;DHT22;25998;46.604;13.610;2023-02-19T14:22:57;13.40;93.30
40287;DHT22;25998;46.604;13.610;2023-02-19T14:26:14;13.30;93.30
40287;DHT22;25998;46.604;13.610;2023-02-19T14:29:38;13.20;93.50
40287;DHT22;25998;46.604;13.610;2023-02-19T14:32:56;13.40;93.30
40287;DHT22;25998;46.604;13.610;2023-02-19T14:39:52;13.60;94.00
40287;DHT22;25998;46.604;13.610;2023-02-19T14:43:13;13.50;94.00
40287;DHT22;25998;46.604;13.610;2023-02-19T14:47:12;13.40;94.10
40287;DHT22;25998;46.604;13.610;2023-02-19T14:50:41;13.50;94.50
40287;DHT22;25998;46.604;13.610;2023-02-19T14:57:54;13.60;92.90
40287;DHT22;25998;46.604;13.610;2023-02-19T15:01:38;13.50;93.20
40287;DHT22;25998;46.604;13.610;2023-02-19T15:05:24;13.50;94.00
40287;DHT22;25998;46.604;13.610;2023-02-19T15:08:45;13.10;94.40
40287;DHT22;25998;46.604;13.610;2023-02-19T15:12:03;12.80;94.70
40287;DHT22;25998;46.604;13.610;2023-02-19T15:15:20;12.60;94.90
40287;DHT22;25998;46.604;13.610;2023-02-19T15:18:32;12.20;95.30
40287;DHT22;25998;46.604;13.610;2023-02-19T15:21:52;12.20;95.70
40287;DHT22;25998;46.604;13.610;2023-02-19T15:25:05;12.10;95.40
40287;DHT22;25998;46.604;13.610;2023-02-19T15:28:31;11.70;95.60
40287;DHT22;25998;46.604;13.610;2023-02-19T15:31:59;11.70;95.70
40287;DHT22;25998;46.604;13.610;2023-02-19T15:35:21;11.60;95.70
40287;DHT22;25998;46.604;13.610;2023-02-19T15:38:33;11.80;95.90
40287;DHT22;25998;46.604;13.610;2023-02-19T15:42:14;11.70;94.90
40287;DHT22;25998;46.604;13.610;2023-02-19T15:45:30;11.40;96.00
40287;DHT22;25998;46.604;13.610;2023-02-19T15:48:55;11.20;96.30
40287;DHT22;25998;46.604;13.610;2023-02-19T15:52:10;10.80;96.80
40287;DHT22;25998;46.604;13.610;2023-02-19T15:59:22;10.20;97.60
40287;DHT22;25998;46.604;13.610;2023-02-19T16:02:39;10.10;97.60
40287;DHT22;25998;46.604;13.610;2023-02-19T16:06:14;9.90;97.90
40287;DHT22;25998;46.604;13.610;2023-02-19T16:09:34;9.60;98.40
40287;DHT22;25998;46.604;13.610;2023-02-19T16:12:59;9.50;98.40
40287;DHT22;25998;46.604;13.610;2023-02-19T16:16:23;9.50;98.30
40287;DHT22;25998;46.604;13.610;2023-02-19T16:23:02;9.20;98.30
40287;DHT22;25998;46.604;13.610;2023-02-19T16:26:25;9.20;98.60
40287;DHT22;25998;46.604;13.610;2023-02-19T16:29:37;9.00;98.70
40287;DHT22;25998;46.604;13.610;2023-02-19T16:33:26;8.80;99.50
40287;DHT22;25998;46.604;13.610;2023-02-19T16:36:47;8.70;99.40
40287;DHT22;25998;46.604;13.610;2023-02-19T16:43:30;8.30;99.90
40287;DHT22;25998;46.604;13.610;2023-02-19T16:46:52;8.20;99.90
40287;DHT22;25998;46.604;13.610;2023-02-19T16:50:15;8.10;99.90
40287;DHT22;25998;46.604;13.610;2023-02-19T16:53:27;8.10;99.90
40287;DHT22;25998;46.604;13.610;2023-02-19T16:56:39;8.00;99.90
40287;DHT22;25998;46.604;13.610;2023-02-19T16:59:50;7.90;99.90
40287;DHT22;25998;46.604;13.610;2023-02-19T17:03:14;7.80;99.90
40287;DHT22;25998;46.604;13.610;2023-02-19T17:06:26;7.70;99.90
40287;DHT22;25998;46.604;13.610;2023-02-19T17:09:37;7.50;99.90
40287;DHT22;25998;46.604;13.610;2023-02-19T17:12:52;7.40;99.90
40287;DHT22;25998;46.604;13.610;2023-02-19T17:16:06;7.50;99.90
40287;DHT22;25998;46.604;13.610;2023-02-19T17:19:20;7.50;99.90
40287;DHT22;25998;46.604;13.610;2023-02-19T17:22:32;7.40;99.90
40287;DHT22;25998;46.604;13.610;2023-02-19T17:25:45;7.30;99.90
40287;DHT22;25998;46.604;13.610;2023-02-19T17:28:57;7.40;99.90
40287;DHT22;25998;46.604;13.610;2023-02-19T17:35:32;7.30;99.90
40287;DHT22;25998;46.604;13.610;2023-02-19T17:38:43;7.40;99.90
40287;DHT22;25998;46.604;13.610;2023-02-19T17:41:54;7.20;99.90
40287;DHT22;25998;46.604;13.610;2023-02-19T17:45:08;7.10;99.90
40287;DHT22;25998;46.604;13.610;2023-02-19T17:48:19;7.10;99.90
40287;DHT22;25998;46.604;13.610;2023-02-19T17:51:34;7.10;99.90
40287;DHT22;25998;46.604;13.610;2023-02-19T17:54:45;6.90;99.90
40287;DHT22;25998;46.604;13.610;2023-02-19T17:57:59;7.00;99.90
40287;DHT22;25998;46.604;13.610;2023-02-19T18:01:10;7.00;99.90
40287;DHT22;25998;46.604;13.610;2023-02-19T18:04:21;6.90;99.90
40287;DHT22;25998;46.604;13.610;2023-02-19T18:07:34;6.80;99.90
40287;DHT22;25998;46.604;13.610;2023-02-19T18:10:45;6.80;99.90
40287;DHT22;25998;46.604;13.610;2023-02-19T18:13:56;6.80;99.90
40287;DHT22;25998;46.604;13.610;2023-02-19T18:17:09;6.80;99.90
40287;DHT22;25998;46.604;13.610;2023-02-19T18:20:22;6.70;99.90
40287;DHT22;25998;46.604;13.610;2023-02-19T18:23:34;6.40;99.90
40287;DHT22;25998;46.604;13.610;2023-02-19T18:26:45;6.50;99.90
40287;DHT22;25998;46.604;13.610;2023-02-19T18:29:56;6.40;99.90
40287;DHT22;25998;46.604;13.610;2023-02-19T18:33:07;6.30;99.90
40287;DHT22;25998;46.604;13.610;2023-02-19T18:36:23;6.30;99.90
40287;DHT22;25998;46.604;13.610;2023-02-19T18:39:39;6.30;99.90
40287;DHT22;25998;46.604;13.610;2023-02-19T18:42:51;6.20;99.90
40287;DHT22;25998;46.604;13.610;2023-02-19T18:46:08;6.20;99.90
40287;DHT22;25998;46.604;13.610;2023-02-19T18:49:19;6.00;99.90
40287;DHT22;25998;46.604;13.610;2023-02-19T18:52:32;6.00;99.90
40287;DHT22;25998;46.604;13.610;2023-02-19T18:55:43;6.10;99.90
40287;DHT22;25998;46.604;13.610;2023-02-19T18:58:54;6.20;99.90
40287;DHT22;25998;46.604;13.610;2023-02-19T19:02:10;6.30;99.90
40287;DHT22;25998;46.604;13.610;2023-02-19T19:05:27;6.20;99.90
40287;DHT22;25998;46.604;13.610;2023-02-19T19:08:38;6.20;99.90
40287;DHT22;25998;46.604;13.610;2023-02-19T19:11:51;6.20;99.90
40287;DHT22;25998;46.604;13.610;2023-02-19T19:15:03;6.20;99.90
40287;DHT22;25998;46.604;13.610;2023-02-19T19:18:14;6.10;99.90
40287;DHT22;25998;46.604;13.610;2023-02-19T19:21:27;6.30;99.90
40287;DHT22;25998;46.604;13.610;2023-02-19T19:24:41;6.40;99.90
40287;DHT22;25998;46.604;13.610;2023-02-19T19:27:54;6.10;99.90
40287;DHT22;25998;46.604;13.610;2023-02-19T19:31:05;6.10;99.90
40287;DHT22;25998;46.604;13.610;2023-02-19T19:34:17;5.90;99.90
40287;DHT22;25998;46.604;13.610;2023-02-19T19:37:33;5.80;99.90
40287;DHT22;25998;46.604;13.610;2023-02-19T19:40:43;6.00;99.90
40287;DHT22;25998;46.604;13.610;2023-02-19T19:43:57;6.20;99.90
40287;DHT22;25998;46.604;13.610;2023-02-19T19:47:10;6.20;99.90
40287;DHT22;25998;46.604;13.610;2023-02-19T19:50:23;6.20;99.90
40287;DHT22;25998;46.604;13.610;2023-02-19T19:53:34;5.90;99.90
40287;DHT22;25998;46.604;13.610;2023-02-19T19:56:46;6.00;99.90
40287;DHT22;25998;46.604;13.610;2023-02-19T19:59:57;5.90;99.90
40287;DHT22;25998;46.604;13.610;2023-02-19T20:03:08;5.90;99.90
40287;DHT22;25998;46.604;13.610;2023-02-19T20:06:45;5.80;99.90
40287;DHT22;25998;46.604;13.610;2023-02-19T20:09:56;5.60;99.90
40287;DHT22;25998;46.604;13.610;2023-02-19T20:13:07;5.50;99.90
40287;DHT22;25998;46.604;13.610;2023-02-19T20:16:23;5.50;99.90
40287;DHT22;25998;46.604;13.610;2023-02-19T20:19:34;5.60;99.90
40287;DHT22;25998;46.604;13.610;2023-02-19T20:22:45;5.70;99.90
40287;DHT22;25998;46.604;13.610;2023-02-19T20:25:56;5.70;99.90
40287;DHT22;25998;46.604;13.610;2023-02-19T20:29:07;5.60;99.90
40287;DHT22;25998;46.604;13.610;2023-02-19T20:32:19;5.70;99.90
40287;DHT22;25998;46.604;13.610;2023-02-19T20:35:30;5.50;99.90
40287;DHT22;25998;46.604;13.610;2023-02-19T20:38:41;5.60;99.90
40287;DHT22;25998;46.604;13.610;2023-02-19T20:41:53;5.40;99.90
40287;DHT22;25998;46.604;13.610;2023-02-19T20:45:07;5.50;99.90
40287;DHT22;25998;46.604;13.610;2023-02-19T20:48:20;5.40;99.90
40287;DHT22;25998;46.604;13.610;2023-02-19T20:51:31;5.40;99.90
40287;DHT22;25998;46.604;13.610;2023-02-19T20:54:42;5.30;99.90
40287;DHT22;25998;46.604;13.610;2023-02-19T20:57:53;5.50;99.90
40287;DHT22;25998;46.604;13.610;2023-02-19T21:01:04;5.50;99.90
40287;DHT22;25998;46.604;13.610;2023-02-19T21:04:18;5.40;99.90
40287;DHT22;25998;46.604;13.610;2023-02-19T21:07:29;5.40;99.90
40287;DHT22;25998;46.604;13.610;2023-02-19T21:10:40;5.50;99.90
40287;DHT22;25998;46.604;13.610;2023-02-19T21:13:54;5.60;99.90
40287;DHT22;25998;46.604;13.610;2023-02-19T21:17:08;5.40;99.90
40287;DHT22;25998;46.604;13.610;2023-02-19T21:20:19;5.50;99.90
40287;DHT22;25998;46.604;13.610;2023-02-19T21:23:30;5.40;99.90
40287;DHT22;25998;46.604;13.610;2023-02-19T21:26:42;5.50;99.90
40287;DHT22;25998;46.604;13.610;2023-02-19T21:29:53;5.50;99.90
40287;DHT22;25998;46.604;13.610;2023-02-19T21:33:04;5.40;99.90
40287;DHT22;25998;46.604;13.610;2023-02-19T21:36:17;5.60;99.90
40287;DHT22;25998;46.604;13.610;2023-02-19T21:39:28;5.60;99.90
40287;DHT22;25998;46.604;13.610;2023-02-19T21:42:40;5.60;99.90
40287;DHT22;25998;46.604;13.610;2023-02-19T21:45:51;5.60;99.90
40287;DHT22;25998;46.604;13.610;2023-02-19T21:49:02;5.40;99.90
40287;DHT22;25998;46.604;13.610;2023-02-19T21:52:13;5.50;99.90
40287;DHT22;25998;46.604;13.610;2023-02-19T21:55:24;5.40;99.90
40287;DHT22;25998;46.604;13.610;2023-02-19T21:58:35;5.40;99.90
40287;DHT22;25998;46.604;13.610;2023-02-19T22:01:46;5.20;99.90
40287;DHT22;25998;46.604;13.610;2023-02-19T22:05:00;5.20;99.90
40287;DHT22;25998;46.604;13.610;2023-02-19T22:08:14;5.00;99.90
40287;DHT22;25998;46.604;13.610;2023-02-19T22:11:26;4.90;99.90
40287;DHT22;25998;46.604;13.610;2023-02-19T22:14:37;4.80;99.90
40287;DHT22;25998;46.604;13.610;2023-02-19T22:17:50;4.70;99.90
40287;DHT22;25998;46.604;13.610;2023-02-19T22:21:04;4.90;99.90
40287;DHT22;25998;46.604;13.610;2023-02-19T22:24:19;4.90;99.90
40287;DHT22;25998;46.604;13.610;2023-02-19T22:27:30;4.80;99.90
40287;DHT22;25998;46.604;13.610;2023-02-19T22:30:40;4.70;99.90
40287;DHT22;25998;46.604;13.610;2023-02-19T22:33:53;4.80;99.90
40287;DHT22;25998;46.604;13.610;2023-02-19T22:37:05;4.70;99.90